sensor_id;sensor_type;location;lat;lon;timestamp;pressure;altitude;pressure_sealevel;temperature
76394;BMP180;65216;51.090;-115.352;2023-08-06T00:00:06;87793.60;;;23.20
76394;BMP180;65216;51.090;-115.352;2023-08-06T00:02:33;87791.00;;;23.20
76394;BMP180;65216;51.090;-115.352;2023-08-06T00:05:01;87782.80;;;23.20
76394;BMP180;65216;51.090;-115.352;2023-08-06T00:07:29;87777.40;;;23.20
76394;BMP180;65216;51.090;-115.352;2023-08-06T00:09:56;87792.40;;;23.20
76394;BMP180;65216;51.090;-115.352;2023-08-06T00:12:23;87789.00;;;23.20
76394;BMP180;65216;51.090;-115.352;2023-08-06T00:14:53;87778.20;;;23.20
76394;BMP180;65216;51.090;-115.352;2023-08-06T00:17:20;87789.20;;;23.20
76394;BMP180;65216;51.090;-115.352;2023-08-06T00:19:48;87785.80;;;23.18
76394;BMP180;65216;51.090;-115.352;2023-08-06T00:22:15;87764.20;;;23.12
76394;BMP180;65216;51.090;-115.352;2023-08-06T00:24:42;87786.80;;;23.10
76394;BMP180;65216;51.090;-115.352;2023-08-06T00:27:12;87788.40;;;23.10
76394;BMP180;65216;51.090;-115.352;2023-08-06T00:29:41;87777.80;;;23.10
76394;BMP180;65216;51.090;-115.352;2023-08-06T00:32:08;87770.00;;;23.10
76394;BMP180;65216;51.090;-115.352;2023-08-06T00:34:35;87786.20;;;23.10
76394;BMP180;65216;51.090;-115.352;2023-08-06T00:37:02;87783.40;;;23.10
76394;BMP180;65216;51.090;-115.352;2023-08-06T00:39:29;87785.40;;;23.10
76394;BMP180;65216;51.090;-115.352;2023-08-06T00:41:56;87776.60;;;23.10
76394;BMP180;65216;51.090;-115.352;2023-08-06T00:44:24;87776.40;;;23.10
76394;BMP180;65216;51.090;-115.352;2023-08-06T00:46:51;87779.80;;;23.10
76394;BMP180;65216;51.090;-115.352;2023-08-06T00:49:19;87767.60;;;23.10
76394;BMP180;65216;51.090;-115.352;2023-08-06T00:51:47;87792.20;;;23.10
76394;BMP180;65216;51.090;-115.352;2023-08-06T00:54:17;87790.20;;;23.10
76394;BMP180;65216;51.090;-115.352;2023-08-06T00:56:45;87782.80;;;23.10
76394;BMP180;65216;51.090;-115.352;2023-08-06T00:59:13;87777.80;;;23.08
76394;BMP180;65216;51.090;-115.352;2023-08-06T01:01:40;87775.60;;;23.00
76394;BMP180;65216;51.090;-115.352;2023-08-06T01:04:08;87776.60;;;23.00
76394;BMP180;65216;51.090;-115.352;2023-08-06T01:12:48;87775.00;;;23.00
76394;BMP180;65216;51.090;-115.352;2023-08-06T01:15:29;87774.80;;;23.00
76394;BMP180;65216;51.090;-115.352;2023-08-06T01:18:01;87789.60;;;22.92
76394;BMP180;65216;51.090;-115.352;2023-08-06T01:20:30;87781.20;;;22.90
76394;BMP180;65216;51.090;-115.352;2023-08-06T01:22:57;87785.60;;;22.90
76394;BMP180;65216;51.090;-115.352;2023-08-06T01:25:37;87777.40;;;22.90
76394;BMP180;65216;51.090;-115.352;2023-08-06T01:28:22;87788.00;;;22.90
76394;BMP180;65216;51.090;-115.352;2023-08-06T01:30:59;87785.00;;;22.88
76394;BMP180;65216;51.090;-115.352;2023-08-06T01:33:32;87784.60;;;22.80
76394;BMP180;65216;51.090;-115.352;2023-08-06T01:36:02;87779.40;;;22.80
76394;BMP180;65216;51.090;-115.352;2023-08-06T01:38:30;87776.60;;;22.80
76394;BMP180;65216;51.090;-115.352;2023-08-06T01:40:57;87787.60;;;22.80
76394;BMP180;65216;51.090;-115.352;2023-08-06T01:43:24;87789.60;;;22.80
76394;BMP180;65216;51.090;-115.352;2023-08-06T01:45:54;87781.40;;;22.80
76394;BMP180;65216;51.090;-115.352;2023-08-06T01:48:21;87788.60;;;22.80
76394;BMP180;65216;51.090;-115.352;2023-08-06T01:50:51;87783.20;;;22.80
76394;BMP180;65216;51.090;-115.352;2023-08-06T01:53:18;87789.60;;;22.80
76394;BMP180;65216;51.090;-115.352;2023-08-06T01:55:51;87780.80;;;22.80
76394;BMP180;65216;51.090;-115.352;2023-08-06T01:58:18;87797.40;;;22.80
76394;BMP180;65216;51.090;-115.352;2023-08-06T02:00:46;87791.20;;;22.80
76394;BMP180;65216;51.090;-115.352;2023-08-06T02:03:13;87786.60;;;22.80
76394;BMP180;65216;51.090;-115.352;2023-08-06T02:05:41;87796.80;;;22.80
76394;BMP180;65216;51.090;-115.352;2023-08-06T02:08:08;87788.40;;;22.80
76394;BMP180;65216;51.090;-115.352;2023-08-06T02:10:36;87788.00;;;22.80
76394;BMP180;65216;51.090;-115.352;2023-08-06T02:13:06;87787.60;;;22.80
76394;BMP180;65216;51.090;-115.352;2023-08-06T02:15:34;87810.00;;;22.80
76394;BMP180;65216;51.090;-115.352;2023-08-06T02:18:01;87802.80;;;22.78
76394;BMP180;65216;51.090;-115.352;2023-08-06T02:20:28;87807.60;;;22.72
76394;BMP180;65216;51.090;-115.352;2023-08-06T02:22:55;87811.20;;;22.70
76394;BMP180;65216;51.090;-115.352;2023-08-06T02:25:25;87807.80;;;22.70
76394;BMP180;65216;51.090;-115.352;2023-08-06T02:27:54;87809.00;;;22.70
76394;BMP180;65216;51.090;-115.352;2023-08-06T02:30:22;87808.80;;;22.70
76394;BMP180;65216;51.090;-115.352;2023-08-06T02:32:49;87802.20;;;22.66
76394;BMP180;65216;51.090;-115.352;2023-08-06T02:35:16;87816.00;;;22.60
76394;BMP180;65216;51.090;-115.352;2023-08-06T02:37:43;87818.40;;;22.60
76394;BMP180;65216;51.090;-115.352;2023-08-06T02:40:10;87818.60;;;22.60
76394;BMP180;65216;51.090;-115.352;2023-08-06T02:42:37;87819.00;;;22.60
76394;BMP180;65216;51.090;-115.352;2023-08-06T02:45:04;87816.20;;;22.60
76394;BMP180;65216;51.090;-115.352;2023-08-06T02:47:32;87825.20;;;22.60
76394;BMP180;65216;51.090;-115.352;2023-08-06T02:49:58;87825.40;;;22.52
76394;BMP180;65216;51.090;-115.352;2023-08-06T02:52:25;87829.20;;;22.52
76394;BMP180;65216;51.090;-115.352;2023-08-06T02:54:52;87825.20;;;22.50
76394;BMP180;65216;51.090;-115.352;2023-08-06T02:57:19;87830.80;;;22.50
76394;BMP180;65216;51.090;-115.352;2023-08-06T02:59:49;87831.40;;;22.50
76394;BMP180;65216;51.090;-115.352;2023-08-06T03:02:16;87835.00;;;22.50
76394;BMP180;65216;51.090;-115.352;2023-08-06T03:04:43;87844.20;;;22.50
76394;BMP180;65216;51.090;-115.352;2023-08-06T03:07:10;87845.60;;;22.48
76394;BMP180;65216;51.090;-115.352;2023-08-06T03:09:36;87851.60;;;22.46
76394;BMP180;65216;51.090;-115.352;2023-08-06T03:12:04;87837.80;;;22.40
76394;BMP180;65216;51.090;-115.352;2023-08-06T03:14:31;87844.40;;;22.40
76394;BMP180;65216;51.090;-115.352;2023-08-06T03:16:58;87847.80;;;22.40
76394;BMP180;65216;51.090;-115.352;2023-08-06T03:19:25;87853.60;;;22.40
76394;BMP180;65216;51.090;-115.352;2023-08-06T03:21:52;87848.40;;;22.40
76394;BMP180;65216;51.090;-115.352;2023-08-06T03:24:19;87845.60;;;22.40
76394;BMP180;65216;51.090;-115.352;2023-08-06T03:26:46;87847.40;;;22.40
76394;BMP180;65216;51.090;-115.352;2023-08-06T03:29:13;87843.20;;;22.40
76394;BMP180;65216;51.090;-115.352;2023-08-06T03:31:40;87840.60;;;22.40
76394;BMP180;65216;51.090;-115.352;2023-08-06T03:34:07;87842.80;;;22.32
76394;BMP180;65216;51.090;-115.352;2023-08-06T03:36:34;87848.00;;;22.32
76394;BMP180;65216;51.090;-115.352;2023-08-06T03:39:01;87852.00;;;22.30
76394;BMP180;65216;51.090;-115.352;2023-08-06T03:41:28;87852.20;;;22.30
76394;BMP180;65216;51.090;-115.352;2023-08-06T03:43:54;87857.80;;;22.30
76394;BMP180;65216;51.090;-115.352;2023-08-06T03:46:21;87865.00;;;22.30
76394;BMP180;65216;51.090;-115.352;2023-08-06T03:48:48;87864.80;;;22.30
76394;BMP180;65216;51.090;-115.352;2023-08-06T03:51:15;87873.00;;;22.30
76394;BMP180;65216;51.090;-115.352;2023-08-06T03:53:42;87877.20;;;22.30
76394;BMP180;65216;51.090;-115.352;2023-08-06T03:56:09;87881.00;;;22.30
76394;BMP180;65216;51.090;-115.352;2023-08-06T03:58:36;87882.60;;;22.26
76394;BMP180;65216;51.090;-115.352;2023-08-06T04:01:03;87888.00;;;22.22
76394;BMP180;65216;51.090;-115.352;2023-08-06T04:03:30;87886.80;;;22.20
76394;BMP180;65216;51.090;-115.352;2023-08-06T04:05:57;87891.00;;;22.20
76394;BMP180;65216;51.090;-115.352;2023-08-06T04:08:24;87896.40;;;22.20
76394;BMP180;65216;51.090;-115.352;2023-08-06T04:10:54;87898.80;;;22.20
76394;BMP180;65216;51.090;-115.352;2023-08-06T04:13:24;87890.00;;;22.20
76394;BMP180;65216;51.090;-115.352;2023-08-06T04:15:52;87900.80;;;22.20
76394;BMP180;65216;51.090;-115.352;2023-08-06T04:18:19;87901.40;;;22.20
76394;BMP180;65216;51.090;-115.352;2023-08-06T04:20:49;87903.60;;;22.20
76394;BMP180;65216;51.090;-115.352;2023-08-06T04:23:18;87908.40;;;22.20
76394;BMP180;65216;51.090;-115.352;2023-08-06T04:25:48;87911.20;;;22.16
76394;BMP180;65216;51.090;-115.352;2023-08-06T04:28:15;87915.20;;;22.10
76394;BMP180;65216;51.090;-115.352;2023-08-06T04:30:42;87915.60;;;22.10
76394;BMP180;65216;51.090;-115.352;2023-08-06T04:33:09;87922.20;;;22.10
76394;BMP180;65216;51.090;-115.352;2023-08-06T04:35:35;87920.60;;;22.10
76394;BMP180;65216;51.090;-115.352;2023-08-06T04:38:03;87929.00;;;22.10
76394;BMP180;65216;51.090;-115.352;2023-08-06T04:40:29;87933.40;;;22.10
76394;BMP180;65216;51.090;-115.352;2023-08-06T04:42:56;87939.60;;;22.10
76394;BMP180;65216;51.090;-115.352;2023-08-06T04:45:25;87944.80;;;22.10
76394;BMP180;65216;51.090;-115.352;2023-08-06T04:47:58;87949.60;;;22.10
76394;BMP180;65216;51.090;-115.352;2023-08-06T04:50:25;87957.60;;;22.08
76394;BMP180;65216;51.090;-115.352;2023-08-06T04:52:52;87958.20;;;22.00
76394;BMP180;65216;51.090;-115.352;2023-08-06T04:55:18;87958.00;;;22.00
76394;BMP180;65216;51.090;-115.352;2023-08-06T04:57:45;87959.00;;;22.00
76394;BMP180;65216;51.090;-115.352;2023-08-06T05:00:12;87958.20;;;22.00
76394;BMP180;65216;51.090;-115.352;2023-08-06T05:02:39;87960.60;;;22.00
76394;BMP180;65216;51.090;-115.352;2023-08-06T05:05:09;87956.60;;;22.00
76394;BMP180;65216;51.090;-115.352;2023-08-06T05:07:36;87959.40;;;22.00
76394;BMP180;65216;51.090;-115.352;2023-08-06T05:10:03;87959.40;;;22.00
76394;BMP180;65216;51.090;-115.352;2023-08-06T05:12:30;87959.80;;;22.00
76394;BMP180;65216;51.090;-115.352;2023-08-06T05:14:57;87957.80;;;22.00
76394;BMP180;65216;51.090;-115.352;2023-08-06T05:17:24;87954.00;;;22.00
76394;BMP180;65216;51.090;-115.352;2023-08-06T05:19:51;87957.20;;;22.00
76394;BMP180;65216;51.090;-115.352;2023-08-06T05:22:18;87951.40;;;21.98
76394;BMP180;65216;51.090;-115.352;2023-08-06T05:24:45;87947.20;;;21.92
76394;BMP180;65216;51.090;-115.352;2023-08-06T05:27:12;87945.20;;;21.98
76394;BMP180;65216;51.090;-115.352;2023-08-06T05:29:39;87944.40;;;21.92
76394;BMP180;65216;51.090;-115.352;2023-08-06T05:32:07;87945.00;;;21.90
76394;BMP180;65216;51.090;-115.352;2023-08-06T05:34:33;87948.20;;;21.90
76394;BMP180;65216;51.090;-115.352;2023-08-06T05:37:00;87950.20;;;21.90
76394;BMP180;65216;51.090;-115.352;2023-08-06T05:39:27;87950.60;;;21.90
76394;BMP180;65216;51.090;-115.352;2023-08-06T05:41:54;87947.20;;;21.90
76394;BMP180;65216;51.090;-115.352;2023-08-06T05:44:23;87945.80;;;21.90
76394;BMP180;65216;51.090;-115.352;2023-08-06T05:46:50;87943.40;;;21.90
76394;BMP180;65216;51.090;-115.352;2023-08-06T05:49:18;87941.60;;;21.90
76394;BMP180;65216;51.090;-115.352;2023-08-06T05:51:44;87942.20;;;21.90
76394;BMP180;65216;51.090;-115.352;2023-08-06T05:54:11;87947.00;;;21.90
76394;BMP180;65216;51.090;-115.352;2023-08-06T05:56:38;87952.60;;;21.90
76394;BMP180;65216;51.090;-115.352;2023-08-06T05:59:05;87955.40;;;21.90
76394;BMP180;65216;51.090;-115.352;2023-08-06T06:01:32;87953.80;;;21.84
76394;BMP180;65216;51.090;-115.352;2023-08-06T06:04:02;87949.00;;;21.80
76394;BMP180;65216;51.090;-115.352;2023-08-06T06:06:29;87952.40;;;21.80
76394;BMP180;65216;51.090;-115.352;2023-08-06T06:08:56;87949.40;;;21.80
76394;BMP180;65216;51.090;-115.352;2023-08-06T06:11:23;87950.60;;;21.80
76394;BMP180;65216;51.090;-115.352;2023-08-06T06:13:51;87953.00;;;21.80
76394;BMP180;65216;51.090;-115.352;2023-08-06T06:16:18;87957.20;;;21.80
76394;BMP180;65216;51.090;-115.352;2023-08-06T06:18:45;87959.00;;;21.80
76394;BMP180;65216;51.090;-115.352;2023-08-06T06:21:12;87964.00;;;21.80
76394;BMP180;65216;51.090;-115.352;2023-08-06T06:23:39;87970.20;;;21.80
76394;BMP180;65216;51.090;-115.352;2023-08-06T06:26:06;87966.40;;;21.80
76394;BMP180;65216;51.090;-115.352;2023-08-06T06:28:33;87962.80;;;21.80
76394;BMP180;65216;51.090;-115.352;2023-08-06T06:31:03;87961.20;;;21.80
76394;BMP180;65216;51.090;-115.352;2023-08-06T06:33:32;87958.20;;;21.80
76394;BMP180;65216;51.090;-115.352;2023-08-06T06:35:59;87957.80;;;21.72
76394;BMP180;65216;51.090;-115.352;2023-08-06T06:38:26;87951.00;;;21.70
76394;BMP180;65216;51.090;-115.352;2023-08-06T06:40:59;87946.20;;;21.70
76394;BMP180;65216;51.090;-115.352;2023-08-06T06:43:26;87942.60;;;21.70
76394;BMP180;65216;51.090;-115.352;2023-08-06T06:46:02;87941.00;;;21.70
76394;BMP180;65216;51.090;-115.352;2023-08-06T06:48:32;87942.80;;;21.70
76394;BMP180;65216;51.090;-115.352;2023-08-06T06:51:00;87939.40;;;21.70
76394;BMP180;65216;51.090;-115.352;2023-08-06T06:53:27;87942.80;;;21.70
76394;BMP180;65216;51.090;-115.352;2023-08-06T06:56:02;87940.60;;;21.70
76394;BMP180;65216;51.090;-115.352;2023-08-06T06:58:31;87942.40;;;21.70
76394;BMP180;65216;51.090;-115.352;2023-08-06T07:00:59;87944.00;;;21.70
76394;BMP180;65216;51.090;-115.352;2023-08-06T07:03:29;87946.20;;;21.70
76394;BMP180;65216;51.090;-115.352;2023-08-06T07:05:59;87944.20;;;21.70
76394;BMP180;65216;51.090;-115.352;2023-08-06T07:08:26;87946.20;;;21.70
76394;BMP180;65216;51.090;-115.352;2023-08-06T07:11:05;87948.60;;;21.70
76394;BMP180;65216;51.090;-115.352;2023-08-06T07:13:33;87952.60;;;21.70
76394;BMP180;65216;51.090;-115.352;2023-08-06T07:16:01;87948.80;;;21.66
76394;BMP180;65216;51.090;-115.352;2023-08-06T07:18:29;87948.00;;;21.62
76394;BMP180;65216;51.090;-115.352;2023-08-06T07:20:59;87948.80;;;21.66
76394;BMP180;65216;51.090;-115.352;2023-08-06T07:23:26;87945.60;;;21.68
76394;BMP180;65216;51.090;-115.352;2023-08-06T07:25:54;87942.80;;;21.68
76394;BMP180;65216;51.090;-115.352;2023-08-06T07:28:20;87942.40;;;21.66
76394;BMP180;65216;51.090;-115.352;2023-08-06T07:30:48;87935.40;;;21.66
76394;BMP180;65216;51.090;-115.352;2023-08-06T07:33:15;87936.00;;;21.64
76394;BMP180;65216;51.090;-115.352;2023-08-06T07:35:42;87940.00;;;21.60
76394;BMP180;65216;51.090;-115.352;2023-08-06T07:38:09;87939.20;;;21.60
76394;BMP180;65216;51.090;-115.352;2023-08-06T07:40:37;87935.80;;;21.60
76394;BMP180;65216;51.090;-115.352;2023-08-06T07:43:04;87930.40;;;21.60
76394;BMP180;65216;51.090;-115.352;2023-08-06T07:45:35;87929.60;;;21.60
76394;BMP180;65216;51.090;-115.352;2023-08-06T07:48:02;87923.20;;;21.60
76394;BMP180;65216;51.090;-115.352;2023-08-06T07:50:32;87920.80;;;21.60
76394;BMP180;65216;51.090;-115.352;2023-08-06T07:52:59;87917.80;;;21.60
76394;BMP180;65216;51.090;-115.352;2023-08-06T07:55:26;87917.40;;;21.60
76394;BMP180;65216;51.090;-115.352;2023-08-06T07:57:54;87919.40;;;21.60
76394;BMP180;65216;51.090;-115.352;2023-08-06T08:00:20;87917.80;;;21.60
76394;BMP180;65216;51.090;-115.352;2023-08-06T08:02:47;87918.60;;;21.60
76394;BMP180;65216;51.090;-115.352;2023-08-06T08:05:14;87914.80;;;21.60
76394;BMP180;65216;51.090;-115.352;2023-08-06T08:07:42;87913.80;;;21.60
76394;BMP180;65216;51.090;-115.352;2023-08-06T08:10:09;87912.20;;;21.60
76394;BMP180;65216;51.090;-115.352;2023-08-06T08:12:36;87910.00;;;21.60
76394;BMP180;65216;51.090;-115.352;2023-08-06T08:15:04;87909.60;;;21.60
76394;BMP180;65216;51.090;-115.352;2023-08-06T08:17:31;87913.00;;;21.60
76394;BMP180;65216;51.090;-115.352;2023-08-06T08:20:01;87909.00;;;21.60
76394;BMP180;65216;51.090;-115.352;2023-08-06T08:22:27;87904.60;;;21.60
76394;BMP180;65216;51.090;-115.352;2023-08-06T08:24:54;87908.00;;;21.60
76394;BMP180;65216;51.090;-115.352;2023-08-06T08:27:21;87905.00;;;21.60
76394;BMP180;65216;51.090;-115.352;2023-08-06T08:29:48;87902.40;;;21.60
76394;BMP180;65216;51.090;-115.352;2023-08-06T08:32:15;87902.40;;;21.60
76394;BMP180;65216;51.090;-115.352;2023-08-06T08:34:41;87901.40;;;21.60
76394;BMP180;65216;51.090;-115.352;2023-08-06T08:37:08;87903.80;;;21.60
76394;BMP180;65216;51.090;-115.352;2023-08-06T08:39:35;87901.00;;;21.60
76394;BMP180;65216;51.090;-115.352;2023-08-06T08:42:03;87900.40;;;21.60
76394;BMP180;65216;51.090;-115.352;2023-08-06T08:44:31;87899.40;;;21.60
76394;BMP180;65216;51.090;-115.352;2023-08-06T08:46:59;87902.00;;;21.60
76394;BMP180;65216;51.090;-115.352;2023-08-06T08:49:29;87902.00;;;21.60
76394;BMP180;65216;51.090;-115.352;2023-08-06T08:51:58;87902.60;;;21.60
76394;BMP180;65216;51.090;-115.352;2023-08-06T08:54:27;87906.00;;;21.50
76394;BMP180;65216;51.090;-115.352;2023-08-06T08:56:55;87898.80;;;21.52
76394;BMP180;65216;51.090;-115.352;2023-08-06T08:59:23;87904.60;;;21.50
76394;BMP180;65216;51.090;-115.352;2023-08-06T09:01:51;87902.40;;;21.50
76394;BMP180;65216;51.090;-115.352;2023-08-06T09:04:19;87899.20;;;21.50
76394;BMP180;65216;51.090;-115.352;2023-08-06T09:06:51;87900.60;;;21.50
76394;BMP180;65216;51.090;-115.352;2023-08-06T09:09:34;87901.40;;;21.52
76394;BMP180;65216;51.090;-115.352;2023-08-06T09:12:15;87900.20;;;21.50
76394;BMP180;65216;51.090;-115.352;2023-08-06T09:14:43;87897.60;;;21.50
76394;BMP180;65216;51.090;-115.352;2023-08-06T09:17:10;87895.20;;;21.50
76394;BMP180;65216;51.090;-115.352;2023-08-06T09:19:39;87897.80;;;21.50
76394;BMP180;65216;51.090;-115.352;2023-08-06T09:22:12;87899.20;;;21.50
76394;BMP180;65216;51.090;-115.352;2023-08-06T09:24:44;87894.80;;;21.50
76394;BMP180;65216;51.090;-115.352;2023-08-06T09:27:15;87900.60;;;21.50
76394;BMP180;65216;51.090;-115.352;2023-08-06T09:29:45;87896.60;;;21.50
76394;BMP180;65216;51.090;-115.352;2023-08-06T09:32:13;87896.20;;;21.50
76394;BMP180;65216;51.090;-115.352;2023-08-06T09:34:43;87896.20;;;21.50
76394;BMP180;65216;51.090;-115.352;2023-08-06T09:37:10;87894.80;;;21.50
76394;BMP180;65216;51.090;-115.352;2023-08-06T09:39:39;87896.20;;;21.50
76394;BMP180;65216;51.090;-115.352;2023-08-06T09:42:07;87898.20;;;21.50
76394;BMP180;65216;51.090;-115.352;2023-08-06T09:44:34;87895.80;;;21.50
76394;BMP180;65216;51.090;-115.352;2023-08-06T09:47:03;87895.00;;;21.50
76394;BMP180;65216;51.090;-115.352;2023-08-06T09:52:01;87892.60;;;21.50
76394;BMP180;65216;51.090;-115.352;2023-08-06T09:54:28;87893.40;;;21.50
76394;BMP180;65216;51.090;-115.352;2023-08-06T09:56:57;87890.00;;;21.50
76394;BMP180;65216;51.090;-115.352;2023-08-06T09:59:25;87890.20;;;21.50
76394;BMP180;65216;51.090;-115.352;2023-08-06T10:01:54;87886.40;;;21.48
76394;BMP180;65216;51.090;-115.352;2023-08-06T10:04:23;87888.00;;;21.46
76394;BMP180;65216;51.090;-115.352;2023-08-06T10:06:51;87878.80;;;21.42
76394;BMP180;65216;51.090;-115.352;2023-08-06T10:09:19;87878.80;;;21.40
76394;BMP180;65216;51.090;-115.352;2023-08-06T10:11:51;87878.20;;;21.40
76394;BMP180;65216;51.090;-115.352;2023-08-06T10:14:35;87876.00;;;21.40
76394;BMP180;65216;51.090;-115.352;2023-08-06T10:17:03;87872.40;;;21.40
76394;BMP180;65216;51.090;-115.352;2023-08-06T10:19:31;87871.80;;;21.40
76394;BMP180;65216;51.090;-115.352;2023-08-06T10:22:20;87872.20;;;21.40
76394;BMP180;65216;51.090;-115.352;2023-08-06T10:24:58;87866.60;;;21.40
76394;BMP180;65216;51.090;-115.352;2023-08-06T10:27:57;87867.20;;;21.40
76394;BMP180;65216;51.090;-115.352;2023-08-06T10:30:32;87866.80;;;21.40
76394;BMP180;65216;51.090;-115.352;2023-08-06T10:33:04;87866.60;;;21.40
76394;BMP180;65216;51.090;-115.352;2023-08-06T10:35:45;87867.80;;;21.40
76394;BMP180;65216;51.090;-115.352;2023-08-06T10:38:21;87865.60;;;21.40
76394;BMP180;65216;51.090;-115.352;2023-08-06T10:41:28;87868.60;;;21.40
76394;BMP180;65216;51.090;-115.352;2023-08-06T10:44:14;87863.20;;;21.30
76394;BMP180;65216;51.090;-115.352;2023-08-06T10:46:41;87870.00;;;21.30
76394;BMP180;65216;51.090;-115.352;2023-08-06T10:49:08;87874.80;;;21.30
76394;BMP180;65216;51.090;-115.352;2023-08-06T10:51:35;87873.60;;;21.30
76394;BMP180;65216;51.090;-115.352;2023-08-06T10:54:03;87876.20;;;21.30
76394;BMP180;65216;51.090;-115.352;2023-08-06T10:56:41;87877.20;;;21.22
76394;BMP180;65216;51.090;-115.352;2023-08-06T10:59:08;87875.40;;;21.20
76394;BMP180;65216;51.090;-115.352;2023-08-06T11:01:38;87878.40;;;21.20
76394;BMP180;65216;51.090;-115.352;2023-08-06T11:04:05;87876.80;;;21.20
76394;BMP180;65216;51.090;-115.352;2023-08-06T11:06:32;87882.40;;;21.20
76394;BMP180;65216;51.090;-115.352;2023-08-06T11:09:01;87883.20;;;21.20
76394;BMP180;65216;51.090;-115.352;2023-08-06T11:11:28;87884.40;;;21.20
76394;BMP180;65216;51.090;-115.352;2023-08-06T11:13:55;87881.20;;;21.12
76394;BMP180;65216;51.090;-115.352;2023-08-06T11:16:24;87878.60;;;21.10
76394;BMP180;65216;51.090;-115.352;2023-08-06T11:18:51;87875.40;;;21.10
76394;BMP180;65216;51.090;-115.352;2023-08-06T11:21:23;87872.20;;;21.10
76394;BMP180;65216;51.090;-115.352;2023-08-06T11:23:53;87874.60;;;21.10
76394;BMP180;65216;51.090;-115.352;2023-08-06T11:26:21;87874.80;;;21.10
76394;BMP180;65216;51.090;-115.352;2023-08-06T11:28:52;87876.00;;;21.10
76394;BMP180;65216;51.090;-115.352;2023-08-06T11:31:23;87872.00;;;21.10
76394;BMP180;65216;51.090;-115.352;2023-08-06T11:33:54;87877.40;;;21.08
76394;BMP180;65216;51.090;-115.352;2023-08-06T11:36:31;87874.40;;;21.04
76394;BMP180;65216;51.090;-115.352;2023-08-06T11:39:00;87872.60;;;21.10
76394;BMP180;65216;51.090;-115.352;2023-08-06T11:41:29;87867.40;;;21.04
76394;BMP180;65216;51.090;-115.352;2023-08-06T11:43:57;87864.20;;;21.06
76394;BMP180;65216;51.090;-115.352;2023-08-06T11:46:24;87864.20;;;21.10
76394;BMP180;65216;51.090;-115.352;2023-08-06T11:48:59;87864.60;;;21.10
76394;BMP180;65216;51.090;-115.352;2023-08-06T11:51:26;87867.80;;;21.10
76394;BMP180;65216;51.090;-115.352;2023-08-06T11:53:58;87870.60;;;21.10
76394;BMP180;65216;51.090;-115.352;2023-08-06T11:56:27;87867.20;;;21.10
76394;BMP180;65216;51.090;-115.352;2023-08-06T11:58:55;87864.40;;;21.10
76394;BMP180;65216;51.090;-115.352;2023-08-06T12:01:22;87865.60;;;21.12
76394;BMP180;65216;51.090;-115.352;2023-08-06T12:03:49;87868.40;;;21.20
76394;BMP180;65216;51.090;-115.352;2023-08-06T12:06:19;87863.20;;;21.20
76394;BMP180;65216;51.090;-115.352;2023-08-06T12:08:49;87858.60;;;21.20
76394;BMP180;65216;51.090;-115.352;2023-08-06T12:11:17;87859.60;;;21.20
76394;BMP180;65216;51.090;-115.352;2023-08-06T12:13:44;87851.00;;;21.20
76394;BMP180;65216;51.090;-115.352;2023-08-06T12:16:11;87853.60;;;21.20
76394;BMP180;65216;51.090;-115.352;2023-08-06T12:18:40;87854.80;;;21.28
76394;BMP180;65216;51.090;-115.352;2023-08-06T12:21:06;87852.40;;;21.28
76394;BMP180;65216;51.090;-115.352;2023-08-06T12:23:33;87854.80;;;21.30
76394;BMP180;65216;51.090;-115.352;2023-08-06T12:26:00;87858.40;;;21.30
76394;BMP180;65216;51.090;-115.352;2023-08-06T12:28:27;87859.60;;;21.30
76394;BMP180;65216;51.090;-115.352;2023-08-06T12:30:54;87857.80;;;21.30
76394;BMP180;65216;51.090;-115.352;2023-08-06T12:33:21;87856.00;;;21.30
76394;BMP180;65216;51.090;-115.352;2023-08-06T12:35:48;87855.80;;;21.30
76394;BMP180;65216;51.090;-115.352;2023-08-06T12:38:15;87854.80;;;21.30
76394;BMP180;65216;51.090;-115.352;2023-08-06T12:40:42;87856.40;;;21.32
76394;BMP180;65216;51.090;-115.352;2023-08-06T12:43:09;87855.00;;;21.30
76394;BMP180;65216;51.090;-115.352;2023-08-06T12:45:36;87853.20;;;21.38
76394;BMP180;65216;51.090;-115.352;2023-08-06T12:48:04;87855.40;;;21.40
76394;BMP180;65216;51.090;-115.352;2023-08-06T12:50:31;87855.40;;;21.40
76394;BMP180;65216;51.090;-115.352;2023-08-06T12:53:02;87851.60;;;21.40
76394;BMP180;65216;51.090;-115.352;2023-08-06T12:55:30;87854.40;;;21.40
76394;BMP180;65216;51.090;-115.352;2023-08-06T12:57:57;87849.80;;;21.40
76394;BMP180;65216;51.090;-115.352;2023-08-06T13:00:26;87851.80;;;21.40
76394;BMP180;65216;51.090;-115.352;2023-08-06T13:02:53;87852.20;;;21.40
76394;BMP180;65216;51.090;-115.352;2023-08-06T13:05:23;87852.00;;;21.40
76394;BMP180;65216;51.090;-115.352;2023-08-06T13:07:49;87845.80;;;21.40
76394;BMP180;65216;51.090;-115.352;2023-08-06T13:10:16;87844.60;;;21.40
76394;BMP180;65216;51.090;-115.352;2023-08-06T13:12:44;87847.00;;;21.40
76394;BMP180;65216;51.090;-115.352;2023-08-06T13:15:11;87848.00;;;21.40
76394;BMP180;65216;51.090;-115.352;2023-08-06T13:17:40;87847.00;;;21.40
76394;BMP180;65216;51.090;-115.352;2023-08-06T13:20:07;87852.00;;;21.42
76394;BMP180;65216;51.090;-115.352;2023-08-06T13:22:37;87850.80;;;21.46
76394;BMP180;65216;51.090;-115.352;2023-08-06T13:25:05;87849.00;;;21.50
76394;BMP180;65216;51.090;-115.352;2023-08-06T13:27:34;87847.40;;;21.50
76394;BMP180;65216;51.090;-115.352;2023-08-06T13:30:01;87847.80;;;21.50
76394;BMP180;65216;51.090;-115.352;2023-08-06T13:32:29;87848.80;;;21.50
76394;BMP180;65216;51.090;-115.352;2023-08-06T13:35:04;87843.80;;;21.50
76394;BMP180;65216;51.090;-115.352;2023-08-06T13:37:32;87850.60;;;21.50
76394;BMP180;65216;51.090;-115.352;2023-08-06T13:39:58;87845.00;;;21.50
76394;BMP180;65216;51.090;-115.352;2023-08-06T13:42:25;87853.00;;;21.50
76394;BMP180;65216;51.090;-115.352;2023-08-06T13:44:52;87854.20;;;21.50
76394;BMP180;65216;51.090;-115.352;2023-08-06T13:47:19;87854.00;;;21.50